Time;durP1;ratioP1;P1;durP2;ratioP2;P2;SDS_P1;SDS_P2;PMS_P1;PMS_P2;Temp;Humidity;BMP_temperature;BMP_pressure;BME280_temperature;BME280_humidity;BME280_pressure;Samples;Min_cycle;Max_cycle;Signal;HPM_P1;HPM_P2
2022/01/30 00:02:25;;;;;;;1.43;1.10;;;;;;;4.98;100.00;152641.53;5094537;28;20453;-77
2022/01/30 00:05:00;;;;;;;1.47;1.37;;;;;;;4.99;100.00;152644.13;5104847;28;20953;-77
2022/01/30 00:07:36;;;;;;;1.20;0.90;;;;;;;5.01;100.00;152647.97;5089586;28;20473;-77
2022/01/30 00:10:14;;;;;;;1.67;1.00;;;;;;;5.08;100.00;152666.03;5102326;28;20461;-77
2022/01/30 00:12:53;;;;;;;1.30;0.80;;;;;;;5.09;100.00;152668.59;5067772;28;20781;-77
2022/01/30 00:15:38;;;;;;;1.13;1.03;;;;;;;5.11;100.00;152673.78;5103004;28;20449;-77
2022/01/30 00:18:37;;;;;;;2.50;1.20;;;;;;;5.14;100.00;152681.47;5072474;28;20455;-77
2022/01/30 00:21:22;;;;;;;2.13;1.20;;;;;;;5.12;100.00;152676.31;5053290;28;20486;-77
2022/01/30 00:24:02;;;;;;;1.40;1.20;;;;;;;5.12;100.00;152676.31;5094479;28;20426;-77
2022/01/30 00:26:40;;;;;;;1.20;0.90;;;;;;;5.16;100.00;152686.66;5055089;28;20526;-77
2022/01/30 00:29:16;;;;;;;1.50;1.17;;;;;;;5.21;100.00;152700.84;5069556;28;20433;-77
2022/01/30 00:31:52;;;;;;;1.90;1.00;;;;;;;5.21;100.00;152699.56;5103268;28;20800;-77
2022/01/30 00:34:27;;;;;;;1.47;0.93;;;;;;;5.24;100.00;152707.28;5103665;28;20441;-77
2022/01/30 00:37:03;;;;;;;1.30;0.97;;;;;;;5.25;100.00;152711.13;5087480;28;20832;-77
2022/01/30 00:39:39;;;;;;;1.73;1.03;;;;;;;5.23;100.00;152706.00;5064495;28;20446;-77
2022/01/30 00:42:17;;;;;;;1.30;0.97;;;;;;;5.27;100.00;152715.03;5070088;28;20583;-77
2022/01/30 00:44:53;;;;;;;1.50;1.10;;;;;;;5.27;100.00;152716.28;5069907;28;20445;-77
2022/01/30 00:47:29;;;;;;;2.93;1.40;;;;;;;5.31;100.00;152725.31;5087641;28;20949;-77
2022/01/30 00:50:06;;;;;;;1.20;0.93;;;;;;;5.32;100.00;152727.91;5052809;28;20544;-77
2022/01/30 00:52:41;;;;;;;1.60;1.13;;;;;;;5.37;100.00;152742.09;5053802;28;20532;-77
2022/01/30 00:55:18;;;;;;;1.70;1.30;;;;;;;5.40;100.00;152748.56;5072521;28;20442;-77
2022/01/30 00:57:55;;;;;;;2.47;1.27;;;;;;;5.38;100.00;152743.34;5091921;28;20829;-77
2022/01/30 01:00:31;;;;;;;1.80;1.23;;;;;;;5.37;100.00;152742.09;5050289;28;20449;-77
2022/01/30 01:03:08;;;;;;;1.80;1.37;;;;;;;5.40;100.00;152748.56;5074214;28;20450;-77
2022/01/30 01:05:44;;;;;;;1.60;1.10;;;;;;;5.41;100.00;152751.09;5073592;28;20480;-77
2022/01/30 01:08:29;;;;;;;1.90;1.30;;;;;;;5.43;100.00;152756.25;5058247;28;20475;-77
2022/01/30 01:11:27;;;;;;;1.60;1.17;;;;;;;5.44;100.00;152758.84;5057136;28;20858;-77
2022/01/30 01:20:53;;;;;;;1.70;1.37;;;;;;;5.47;100.00;152767.88;5074055;28;20470;-77
2022/01/30 01:25:54;;;;;;;1.70;1.60;;;;;;;5.50;100.00;152774.31;5050062;28;20548;-77
2022/01/30 01:28:29;;;;;;;3.20;1.50;;;;;;;5.54;100.00;152784.63;5057821;28;20465;-77
2022/01/30 01:31:07;;;;;;;2.37;1.10;;;;;;;5.53;100.00;152782.06;5073763;28;20441;-77
2022/01/30 01:33:56;;;;;;;2.20;1.63;;;;;;;5.52;100.00;152779.47;5073125;28;21220;-77
2022/01/30 01:36:32;;;;;;;1.90;1.30;;;;;;;5.54;100.00;152785.91;5058643;28;20504;-77
2022/01/30 01:39:08;;;;;;;2.00;1.47;;;;;;;5.56;100.00;152789.75;5072707;28;20441;-77
2022/01/30 01:41:44;;;;;;;1.57;1.10;;;;;;;5.57;100.00;152792.38;5059956;28;20437;-77
2022/01/30 01:44:23;;;;;;;2.03;1.23;;;;;;;5.60;100.00;152798.81;5047800;28;20458;-77
2022/01/30 01:47:00;;;;;;;2.30;1.30;;;;;;;5.58;100.00;152793.66;5072176;28;20520;-77
2022/01/30 01:49:36;;;;;;;1.70;1.40;;;;;;;5.57;100.00;152791.06;5089420;28;20508;-77
2022/01/30 01:52:23;;;;;;;1.37;1.20;;;;;;;5.57;100.00;152791.06;5056870;28;21036;-77
2022/01/30 01:55:00;;;;;;;2.10;1.30;;;;;;;5.59;100.00;152796.25;5054743;28;20460;-77
2022/01/30 01:57:37;;;;;;;1.60;1.07;;;;;;;5.61;100.00;152801.41;5050870;28;20434;-77
2022/01/30 02:00:41;;;;;;;1.80;1.43;;;;;;;5.64;100.00;152810.41;5107164;28;20446;-77
2022/01/30 02:03:19;;;;;;;1.87;1.40;;;;;;;5.62;100.00;152805.25;5057217;28;20422;-77
2022/01/30 02:05:58;;;;;;;2.03;1.30;;;;;;;5.63;100.00;152807.84;5090432;28;20442;-77
2022/01/30 02:08:37;;;;;;;1.60;1.30;;;;;;;5.61;100.00;152802.72;5089956;28;20797;-77
2022/01/30 02:11:17;;;;;;;1.53;1.20;;;;;;;5.62;100.00;152805.25;5086763;28;20449;-77
2022/01/30 02:25:48;;;;;;;1.40;1.10;;;;;;;5.66;100.00;152815.59;5046772;28;20529;-77
2022/01/30 02:28:25;;;;;;;1.53;1.20;;;;;;;5.63;100.00;152807.84;5053856;28;20462;-77
2022/01/30 02:31:06;;;;;;;1.70;1.30;;;;;;;5.69;100.00;152823.34;5071644;28;20445;-77
2022/01/30 02:33:43;;;;;;;2.10;1.10;;;;;;;5.65;100.00;152813.00;5057303;28;20430;-77
2022/01/30 02:36:18;;;;;;;2.03;1.30;;;;;;;5.64;100.00;152810.41;5057048;28;20524;-77
2022/01/30 02:38:58;;;;;;;3.60;1.43;;;;;;;5.68;100.00;152819.44;5097955;28;20809;-77
2022/01/30 02:41:35;;;;;;;2.00;1.20;;;;;;;5.66;100.00;152815.59;5106138;28;20446;-77
2022/01/30 02:44:15;;;;;;;1.60;1.27;;;;;;;5.65;100.00;152811.69;5098884;28;20841;-78
2022/01/30 02:46:53;;;;;;;2.00;1.20;;;;;;;5.65;100.00;152813.00;5054389;28;20442;-77
2022/01/30 02:49:45;;;;;;;1.80;1.20;;;;;;;5.68;100.00;152819.44;5047309;28;20462;-77
2022/01/30 02:52:20;;;;;;;1.63;1.37;;;;;;;5.66;100.00;152814.28;5056060;28;20446;-77
2022/01/30 02:54:57;;;;;;;1.90;1.40;;;;;;;5.63;100.00;152807.84;5105278;28;20796;-77
2022/01/30 02:57:33;;;;;;;1.73;1.33;;;;;;;5.66;100.00;152814.28;5051668;28;20450;-77
2022/01/30 03:00:10;;;;;;;1.80;1.70;;;;;;;5.62;100.00;152803.97;5056232;28;20449;-77
2022/01/30 03:02:46;;;;;;;1.83;1.30;;;;;;;5.65;100.00;152813.00;5056135;28;20469;-77
2022/01/30 03:05:24;;;;;;;1.60;1.30;;;;;;;5.63;100.00;152806.56;5051462;28;20450;-77
2022/01/30 03:08:00;;;;;;;2.40;1.63;;;;;;;5.63;100.00;152806.56;5081953;28;20503;-77
2022/01/30 03:10:36;;;;;;;3.00;1.80;;;;;;;5.66;100.00;152814.28;5056739;28;20449;-77
2022/01/30 03:13:12;;;;;;;1.80;1.30;;;;;;;5.64;100.00;152810.41;5070821;28;20493;-77
2022/01/30 03:15:47;;;;;;;2.53;1.77;;;;;;;5.64;100.00;152809.16;5055456;28;20449;-77
2022/01/30 03:18:23;;;;;;;1.80;1.53;;;;;;;5.62;100.00;152803.97;5055560;28;20445;-77
2022/01/30 03:20:59;;;;;;;1.67;1.40;;;;;;;5.63;100.00;152807.84;5056451;28;20449;-77
2022/01/30 03:23:38;;;;;;;1.77;1.53;;;;;;;5.62;100.00;152803.97;5047460;28;20470;-77
2022/01/30 03:26:15;;;;;;;3.00;2.30;;;;;;;5.62;100.00;152805.25;5070206;28;20445;-77
2022/01/30 03:29:11;;;;;;;2.80;2.10;;;;;;;5.64;100.00;152810.41;5067089;28;20501;-78
2022/01/30 03:31:53;;;;;;;2.20;1.83;;;;;;;5.64;100.00;152809.16;5084929;28;20438;-78
2022/01/30 03:34:29;;;;;;;3.10;2.10;;;;;;;5.65;100.00;152813.00;5066317;28;20454;-78
2022/01/30 03:37:04;;;;;;;1.60;1.43;;;;;;;5.65;100.00;152813.00;5055386;28;20437;-77
2022/01/30 03:39:42;;;;;;;2.57;1.77;;;;;;;5.63;100.00;152807.84;5070903;28;20959;-78
2022/01/30 03:42:19;;;;;;;2.10;1.53;;;;;;;5.65;100.00;152813.00;5070387;28;20465;-77
2022/01/30 03:44:55;;;;;;;4.70;1.73;;;;;;;5.66;100.00;152814.28;5050225;28;20540;-77
2022/01/30 03:47:30;;;;;;;1.97;1.40;;;;;;;5.68;100.00;152820.75;5080499;28;20501;-77
2022/01/30 03:50:07;;;;;;;2.23;1.57;;;;;;;5.69;100.00;152822.03;5062225;28;20956;-77
2022/01/30 03:52:43;;;;;;;1.90;1.40;;;;;;;5.69;100.00;152822.03;5068787;28;20933;-77
2022/01/30 03:55:19;;;;;;;1.80;1.40;;;;;;;5.67;100.00;152818.16;5083472;28;20449;-77
2022/01/30 03:57:56;;;;;;;1.80;1.13;;;;;;;5.68;100.00;152820.75;5071067;28;20792;-77
2022/01/30 04:00:33;;;;;;;1.40;1.30;;;;;;;5.70;100.00;152824.59;5069695;28;20465;-77
2022/01/30 04:03:33;;;;;;;2.37;1.53;;;;;;;5.72;100.00;152831.03;5051770;28;20482;-77
2022/01/30 04:06:09;;;;;;;2.03;1.20;;;;;;;5.71;100.00;152828.47;5054546;28;20450;-77
2022/01/30 04:08:47;;;;;;;1.57;1.30;;;;;;;5.72;100.00;152829.78;5054874;28;20469;-77
2022/01/30 04:11:29;;;;;;;1.70;1.50;;;;;;;5.71;100.00;152828.47;5053740;28;20465;-77
2022/01/30 04:14:13;;;;;;;1.90;1.37;;;;;;;5.73;100.00;152832.34;5054052;28;20492;-77
2022/01/30 04:17:09;;;;;;;2.33;1.10;;;;;;;5.74;100.00;152836.22;5048027;28;20817;-78
2022/01/30 04:20:00;;;;;;;3.80;1.80;;;;;;;5.73;100.00;152833.63;5054540;28;20850;-78
2022/01/30 04:22:58;;;;;;;2.00;1.40;;;;;;;5.76;100.00;152841.38;5068929;28;20813;-78
2022/01/30 04:25:59;;;;;;;2.47;1.37;;;;;;;5.80;100.00;152850.44;5051872;28;20550;-78
2022/01/30 04:28:55;;;;;;;2.57;2.20;;;;;;;5.85;100.00;152864.63;5066488;28;20604;-78
2022/01/30 04:31:36;;;;;;;3.07;2.20;;;;;;;5.87;100.00;152868.50;5070353;28;20445;-78
2022/01/30 04:34:43;;;;;;;2.67;2.13;;;;;;;5.88;100.00;152872.34;5050456;28;20450;-78
2022/01/30 04:37:53;;;;;;;2.83;2.00;;;;;;;5.89;100.00;152874.97;5058226;28;20537;-78
2022/01/30 04:41:20;;;;;;;3.37;2.23;;;;;;;5.88;100.00;152872.34;5035701;28;20455;-78
2022/01/30 04:54:11;;;;;;;4.70;2.53;;;;;;;5.89;100.00;152874.97;5053470;28;20434;-77
2022/01/30 04:57:17;;;;;;;6.70;4.10;;;;;;;5.91;100.00;152880.09;5076656;28;20460;-78
2022/01/30 05:00:25;;;;;;;7.70;3.20;;;;;;;5.86;100.00;152867.22;5068276;28;20442;-78
2022/01/30 05:03:42;;;;;;;5.60;3.33;;;;;;;5.84;100.00;152860.72;5055244;28;20885;-78
2022/01/30 05:07:26;;;;;;;5.50;3.47;;;;;;;5.87;100.00;152869.81;5059861;28;20450;-77
2022/01/30 05:10:05;;;;;;;4.20;3.30;;;;;;;5.87;100.00;152869.81;5054997;28;20473;-77
2022/01/30 05:12:49;;;;;;;6.77;4.10;;;;;;;5.86;100.00;152867.22;5063287;28;20796;-77
2022/01/30 05:15:29;;;;;;;4.57;2.87;;;;;;;5.82;100.00;152856.88;5099216;28;20454;-78
2022/01/30 05:18:24;;;;;;;11.70;4.00;;;;;;;5.79;100.00;152847.81;5103897;28;20513;-77
2022/01/30 05:21:31;;;;;;;6.40;3.87;;;;;;;5.77;100.00;152843.94;5054131;28;20785;-78
2022/01/30 05:24:20;;;;;;;5.90;3.60;;;;;;;5.75;100.00;152838.78;5082367;28;20454;-78
2022/01/30 05:27:14;;;;;;;5.73;3.80;;;;;;;5.76;100.00;152840.06;5070364;28;20445;-77
2022/01/30 05:29:50;;;;;;;6.20;3.50;;;;;;;5.73;100.00;152833.63;5103719;28;20897;-78
2022/01/30 05:32:34;;;;;;;6.50;3.80;;;;;;;5.75;100.00;152838.78;5086407;28;20438;-78
2022/01/30 05:35:39;;;;;;;3.70;3.20;;;;;;;5.68;100.00;152820.75;5062109;28;20490;-78
2022/01/30 05:38:35;;;;;;;7.53;4.03;;;;;;;5.67;100.00;152816.84;5070720;28;20770;-77
2022/01/30 05:41:30;;;;;;;6.03;3.80;;;;;;;5.67;100.00;152818.16;5093068;28;20545;-77
2022/01/30 05:44:39;;;;;;;6.40;3.80;;;;;;;5.66;100.00;152815.59;5104858;28;20795;-77
2022/01/30 05:47:37;;;;;;;4.63;3.50;;;;;;;5.64;100.00;152810.41;5079993;28;20478;-77
2022/01/30 05:50:26;;;;;;;5.57;3.80;;;;;;;5.65;100.00;152811.69;5090160;28;20904;-77
2022/01/30 05:53:14;;;;;;;4.00;3.37;;;;;;;5.68;100.00;152819.44;5071129;28;20965;-77
2022/01/30 05:56:21;;;;;;;4.97;3.73;;;;;;;5.67;100.00;152816.84;5060031;28;20515;-77
2022/01/30 05:58:56;;;;;;;4.30;3.70;;;;;;;5.66;100.00;152815.59;5056744;28;20554;-77
2022/01/30 06:01:38;;;;;;;8.17;3.83;;;;;;;5.62;100.00;152805.25;5102340;28;20462;-77
2022/01/30 06:04:24;;;;;;;7.00;3.90;;;;;;;5.64;100.00;152810.41;5090938;28;20521;-77
2022/01/30 06:07:00;;;;;;;4.93;3.80;;;;;;;5.64;100.00;152810.41;5077380;28;20469;-77
2022/01/30 06:09:36;;;;;;;7.20;3.83;;;;;;;5.66;100.00;152815.59;5074511;28;20906;-78
2022/01/30 06:12:13;;;;;;;9.37;3.90;;;;;;;5.67;100.00;152818.16;5057363;28;20446;-78
2022/01/30 06:14:51;;;;;;;8.27;3.67;;;;;;;5.67;100.00;152818.16;5054298;28;20493;-77
2022/01/30 06:17:31;;;;;;;3.97;3.57;;;;;;;5.66;100.00;152814.28;5054660;28;20438;-77
2022/01/30 06:20:07;;;;;;;9.33;3.60;;;;;;;5.61;100.00;152802.72;5071524;28;20909;-77
2022/01/30 06:23:02;;;;;;;10.37;4.30;;;;;;;5.63;100.00;152807.84;5105111;28;20442;-77
2022/01/30 06:26:16;;;;;;;13.13;3.60;;;;;;;5.60;100.00;152800.09;5051264;28;20827;-78
2022/01/30 06:29:12;;;;;;;6.00;2.97;;;;;;;5.60;100.00;152798.81;5050157;28;20978;-78
2022/01/30 06:32:07;;;;;;;7.37;3.63;;;;;;;5.55;100.00;152787.22;5070844;28;20434;-77
2022/01/30 06:35:03;;;;;;;6.20;3.77;;;;;;;5.59;100.00;152796.25;5071288;28;20451;-77
2022/01/30 06:38:07;;;;;;;6.77;3.20;;;;;;;5.51;100.00;152778.19;5067489;28;20981;-77
2022/01/30 06:41:02;;;;;;;5.03;3.27;;;;;;;5.50;100.00;152774.31;5071972;28;20449;-77
2022/01/30 06:43:58;;;;;;;8.30;4.33;;;;;;;5.48;100.00;152770.44;5106282;28;20527;-77
2022/01/30 06:46:54;;;;;;;7.20;3.13;;;;;;;5.44;100.00;152758.84;5101629;28;20450;-77
2022/01/30 06:49:58;;;;;;;5.27;2.90;;;;;;;5.41;100.00;152751.09;5068247;28;20528;-77
2022/01/30 06:53:00;;;;;;;5.20;2.87;;;;;;;5.33;100.00;152730.47;5090310;28;20449;-77
2022/01/30 06:55:44;;;;;;;7.73;3.37;;;;;;;5.29;100.00;152720.19;5070979;28;20509;-77
2022/01/30 06:58:39;;;;;;;4.63;3.43;;;;;;;5.21;100.00;152699.56;5104912;28;20450;-77
2022/01/30 07:01:33;;;;;;;8.03;3.73;;;;;;;5.20;100.00;152696.94;5102978;28;21000;-77
2022/01/30 07:04:37;;;;;;;6.73;3.33;;;;;;;5.16;100.00;152686.66;5062848;28;20464;-77
2022/01/30 07:07:45;;;;;;;4.70;3.57;;;;;;;5.11;100.00;152673.78;5039239;28;20450;-79
2022/01/30 07:10:21;;;;;;;9.70;3.97;;;;;;;5.04;100.00;152657.00;5071086;28;20501;-77
2022/01/30 07:12:56;;;;;;;5.63;2.97;;;;;;;5.02;100.00;152650.56;5088366;28;20903;-77
2022/01/30 07:15:33;;;;;;;5.97;3.43;;;;;;;5.01;100.00;152647.97;5069494;28;20441;-77
2022/01/30 07:18:11;;;;;;;3.93;3.27;;;;;;;5.03;100.00;152653.16;5086181;28;20533;-75
2022/01/30 07:20:48;;;;;;;5.87;3.10;;;;;;;4.99;100.00;152644.13;5105164;28;20558;-76
2022/01/30 07:23:23;;;;;;;7.00;3.63;;;;;;;4.97;100.00;152637.69;5069554;28;20449;-75
2022/01/30 07:25:59;;;;;;;4.07;3.07;;;;;;;4.96;100.00;152636.38;5055267;28;20449;-76
2022/01/30 07:28:34;;;;;;;9.03;4.10;;;;;;;4.92;100.00;152626.09;5071047;28;20414;-77
2022/01/30 07:31:10;;;;;;;5.60;3.53;;;;;;;4.93;100.00;152628.63;5051248;28;20534;-76
2022/01/30 07:34:10;;;;;;;8.07;4.27;;;;;;;5.05;100.00;152658.31;5068322;22;20458;-78
2022/01/30 07:36:47;;;;;;;4.90;3.70;;;;;;;5.13;100.00;152680.22;5065749;28;20496;-79
2022/01/30 07:39:26;;;;;;;9.47;4.33;;;;;;;5.24;100.00;152707.28;5054223;28;20481;-79
2022/01/30 07:42:03;;;;;;;5.20;3.37;;;;;;;5.37;100.00;152740.81;5040716;28;20446;-79
2022/01/30 07:44:41;;;;;;;9.90;4.63;;;;;;;5.44;99.82;152758.84;5041596;28;20464;-79
2022/01/30 07:47:17;;;;;;;5.57;3.70;;;;;;;5.58;98.68;152794.97;5036490;28;20471;-79
2022/01/30 07:49:53;;;;;;;7.20;4.13;;;;;;;5.69;100.00;152822.03;5061286;28;20477;-79
2022/01/30 07:52:30;;;;;;;8.10;4.20;;;;;;;5.77;99.57;152842.69;5041976;28;20437;-79
2022/01/30 07:55:06;;;;;;;9.43;4.53;;;;;;;5.74;99.58;152836.22;5051067;28;20564;-79
2022/01/30 07:57:42;;;;;;;10.27;4.20;;;;;;;5.64;99.32;152810.41;5051839;28;20951;-79
2022/01/30 08:00:18;;;;;;;9.20;5.00;;;;;;;5.65;97.76;152811.69;5069589;28;20446;-79
2022/01/30 08:02:53;;;;;;;8.13;4.17;;;;;;;5.60;100.00;152800.09;5068700;28;20445;-79
2022/01/30 08:05:29;;;;;;;7.80;5.17;;;;;;;5.58;100.00;152794.97;5059300;28;20815;-79
2022/01/30 08:08:07;;;;;;;7.90;4.10;;;;;;;5.57;100.00;152792.38;5052944;28;20891;-79
2022/01/30 08:10:43;;;;;;;7.23;4.50;;;;;;;5.62;98.24;152805.25;5049690;28;20466;-79
2022/01/30 08:13:18;;;;;;;6.53;4.00;;;;;;;5.55;97.75;152787.22;5052668;28;20446;-79
2022/01/30 08:15:54;;;;;;;8.93;4.40;;;;;;;5.53;98.75;152782.06;5039602;28;20465;-80
2022/01/30 08:18:30;;;;;;;7.27;4.20;;;;;;;5.56;97.71;152789.75;5051922;28;20885;-79
2022/01/30 08:21:06;;;;;;;10.23;4.80;;;;;;;5.56;98.12;152789.75;5035351;28;20443;-79
2022/01/30 08:23:42;;;;;;;9.10;3.80;;;;;;;5.51;97.96;152776.88;5054248;28;20446;-80
2022/01/30 08:26:18;;;;;;;6.23;3.97;;;;;;;5.56;96.54;152789.75;5037284;28;20809;-79
2022/01/30 08:28:54;;;;;;;5.73;3.50;;;;;;;5.64;96.53;152810.41;5051426;28;20438;-79
2022/01/30 08:31:29;;;;;;;6.27;3.87;;;;;;;5.68;97.28;152819.44;5052253;28;20560;-79
2022/01/30 08:34:05;;;;;;;10.37;4.20;;;;;;;5.71;94.90;152828.47;5053414;28;20453;-79
2022/01/30 08:36:40;;;;;;;8.70;3.93;;;;;;;5.77;95.01;152842.69;5038286;28;20429;-79
2022/01/30 08:39:17;;;;;;;5.47;3.30;;;;;;;5.79;94.56;152849.13;5070759;28;20438;-79
2022/01/30 08:41:53;;;;;;;8.90;3.40;;;;;;;5.80;92.53;152851.66;5053689;28;20939;-80
2022/01/30 08:44:28;;;;;;;5.87;3.30;;;;;;;5.84;91.33;152862.00;5071859;28;20865;-79
2022/01/30 08:47:04;;;;;;;9.80;3.80;;;;;;;5.85;92.52;152864.63;5059537;28;20447;-79
2022/01/30 08:49:40;;;;;;;5.00;3.07;;;;;;;5.72;91.90;152829.78;5044804;28;20857;-79
2022/01/30 08:52:16;;;;;;;8.77;3.40;;;;;;;5.56;91.84;152789.75;5051092;28;20902;-79
2022/01/30 08:54:53;;;;;;;9.27;3.10;;;;;;;5.61;89.59;152802.72;5049439;28;20450;-80
2022/01/30 08:57:28;;;;;;;6.00;3.27;;;;;;;5.62;92.35;152805.25;5054068;28;20450;-79
2022/01/30 09:00:08;;;;;;;7.73;3.50;;;;;;;5.59;92.10;152797.50;5038579;28;20773;-79
2022/01/30 09:02:44;;;;;;;5.67;2.80;;;;;;;5.63;93.50;152806.56;5045238;28;20971;-79
2022/01/30 09:05:24;;;;;;;5.20;3.20;;;;;;;5.60;91.28;152800.09;5048931;28;20441;-79
2022/01/30 09:08:00;;;;;;;5.20;3.27;;;;;;;5.64;90.35;152809.16;5049187;28;20435;-80
2022/01/30 09:10:38;;;;;;;8.47;3.80;;;;;;;5.63;93.17;152806.56;5056230;28;20509;-79
2022/01/30 09:13:13;;;;;;;5.47;3.67;;;;;;;5.69;91.88;152822.03;5063147;28;20947;-79
2022/01/30 09:15:56;;;;;;;6.80;2.70;;;;;;;5.73;93.45;152833.63;5049840;28;20932;-79
2022/01/30 09:18:31;;;;;;;5.57;3.77;;;;;;;5.74;90.92;152836.22;5040490;28;20456;-79
2022/01/30 09:21:08;;;;;;;6.50;3.77;;;;;;;5.74;92.84;152836.22;5056915;28;20916;-79
2022/01/30 09:23:43;;;;;;;6.23;3.63;;;;;;;5.70;93.29;152825.88;5063488;28;20446;-79
2022/01/30 09:26:20;;;;;;;8.83;3.60;;;;;;;5.64;93.03;152810.41;5041478;28;20453;-79
2022/01/30 09:28:56;;;;;;;4.43;3.30;;;;;;;5.67;92.31;152818.16;5057019;28;20453;-79
2022/01/30 09:31:32;;;;;;;7.37;3.50;;;;;;;5.60;95.01;152800.09;5039803;28;20465;-79
2022/01/30 09:34:07;;;;;;;3.97;3.20;;;;;;;5.63;92.22;152807.84;5056908;28;20465;-79
2022/01/30 09:36:43;;;;;;;6.70;3.13;;;;;;;5.67;92.14;152818.16;5062313;28;20441;-79
2022/01/30 09:39:18;;;;;;;7.03;3.23;;;;;;;5.65;96.04;152813.00;5055880;28;20902;-79
2022/01/30 09:41:55;;;;;;;12.90;3.70;;;;;;;5.68;93.43;152819.44;5048014;28;20540;-80
2022/01/30 09:44:35;;;;;;;10.33;4.33;;;;;;;5.63;92.61;152807.84;5061754;28;20959;-79
2022/01/30 09:47:12;;;;;;;6.03;3.37;;;;;;;5.59;93.27;152796.25;5040113;28;20481;-79
2022/01/30 09:49:49;;;;;;;11.60;4.03;;;;;;;5.63;95.10;152807.84;5040727;28;21053;-79
2022/01/30 09:52:25;;;;;;;7.37;3.60;;;;;;;5.69;91.62;152823.34;5055976;28;20667;-79
2022/01/30 09:55:01;;;;;;;16.53;4.90;;;;;;;5.73;93.20;152833.63;5038290;28;20489;-79
2022/01/30 09:57:38;;;;;;;6.97;3.40;;;;;;;5.74;94.70;152834.94;5051928;28;20529;-79
2022/01/30 10:00:15;;;;;;;7.30;3.50;;;;;;;5.76;91.34;152841.38;5039620;28;20511;-79
2022/01/30 10:02:51;;;;;;;5.07;3.80;;;;;;;5.86;90.68;152867.22;5059305;28;20445;-79
2022/01/30 10:05:30;;;;;;;7.27;3.80;;;;;;;5.90;90.37;152877.56;5036496;28;20442;-80
2022/01/30 10:08:06;;;;;;;4.03;3.10;;;;;;;5.87;90.28;152869.81;5054999;28;21047;-80
2022/01/30 10:10:59;;;;;;;7.73;3.50;;;;;;;5.92;85.01;152882.69;5054467;28;20481;-79
2022/01/30 10:13:36;;;;;;;8.00;3.20;;;;;;;6.01;85.89;152905.88;5070692;28;20449;-80
2022/01/30 10:16:11;;;;;;;4.90;2.77;;;;;;;5.97;85.92;152895.59;5055270;28;20461;-80
2022/01/30 10:18:47;;;;;;;5.63;2.77;;;;;;;6.00;85.34;152902.03;5054565;28;20449;-80
2022/01/30 10:21:23;;;;;;;5.40;3.00;;;;;;;5.86;82.85;152867.22;5055621;28;20445;-79
2022/01/30 10:23:58;;;;;;;6.53;3.53;;;;;;;5.89;86.19;152874.97;5071835;28;20441;-79
2022/01/30 10:26:34;;;;;;;7.53;3.27;;;;;;;5.79;83.38;152847.81;5054108;28;20806;-80
2022/01/30 10:29:22;;;;;;;5.67;3.40;;;;;;;5.82;86.49;152856.88;5063717;28;20797;-80
2022/01/30 10:32:02;;;;;;;4.20;3.00;;;;;;;5.83;85.87;152858.13;5058688;28;20467;-80
2022/01/30 10:34:39;;;;;;;8.60;3.20;;;;;;;5.82;87.04;152856.88;5055100;28;20473;-80
2022/01/30 10:37:18;;;;;;;8.17;3.17;;;;;;;5.84;85.31;152862.00;5073461;28;20528;-80
2022/01/30 10:39:56;;;;;;;6.70;3.30;;;;;;;5.84;85.23;152862.00;5054404;28;20929;-80
2022/01/30 10:42:39;;;;;;;7.10;3.83;;;;;;;5.88;87.51;152871.06;5038493;28;20442;-80
2022/01/30 10:45:26;;;;;;;7.17;3.07;;;;;;;5.81;88.18;152854.28;5053472;28;20563;-80
2022/01/30 10:48:09;;;;;;;8.73;3.67;;;;;;;5.80;89.20;152851.66;5073897;28;20450;-80
2022/01/30 10:50:48;;;;;;;9.93;4.03;;;;;;;5.82;83.78;152856.88;5056885;28;20462;-80
2022/01/30 10:53:25;;;;;;;4.80;2.60;;;;;;;5.79;81.40;152849.13;5042783;28;20802;-80
2022/01/30 10:56:01;;;;;;;3.33;2.67;;;;;;;5.75;85.09;152838.78;5054835;28;20446;-79
2022/01/30 10:58:36;;;;;;;5.47;3.07;;;;;;;5.72;83.85;152831.03;5055125;28;20482;-79
2022/01/30 11:01:23;;;;;;;4.83;3.20;;;;;;;5.76;85.47;152841.38;5037923;28;20464;-80
2022/01/30 11:04:00;;;;;;;6.37;2.87;;;;;;;5.70;84.61;152824.59;5038958;28;20487;-80
2022/01/30 11:06:40;;;;;;;7.00;3.03;;;;;;;5.74;84.27;152834.94;5036779;28;20542;-79
2022/01/30 11:09:21;;;;;;;3.90;2.40;;;;;;;5.79;84.89;152849.13;5049719;28;20446;-80
2022/01/30 11:12:01;;;;;;;2.50;2.07;;;;;;;5.85;87.21;152863.38;5053307;28;20462;-80
2022/01/30 11:14:40;;;;;;;6.60;2.80;;;;;;;5.88;83.27;152871.06;5048485;28;20457;-80
2022/01/30 11:17:19;;;;;;;5.80;2.90;;;;;;;5.84;84.72;152860.72;5037844;28;20449;-79
2022/01/30 11:19:56;;;;;;;6.13;3.17;;;;;;;5.82;85.39;152856.88;5052074;28;20788;-79
2022/01/30 11:22:32;;;;;;;5.33;2.80;;;;;;;5.80;84.02;152851.66;5052594;28;20438;-80
2022/01/30 11:25:09;;;;;;;10.27;3.10;;;;;;;5.85;85.25;152864.63;5045183;28;20446;-80
2022/01/30 11:27:47;;;;;;;7.43;3.53;;;;;;;5.88;88.76;152872.34;5035257;28;20442;-79
2022/01/30 11:30:24;;;;;;;5.20;2.77;;;;;;;5.90;83.79;152877.56;5053151;28;20478;-80
2022/01/30 11:33:01;;;;;;;4.63;2.57;;;;;;;5.94;85.24;152886.56;5047510;28;20446;-79
2022/01/30 11:35:37;;;;;;;4.60;2.80;;;;;;;5.99;87.07;152900.75;5051488;28;20473;-80
2022/01/30 11:38:13;;;;;;;6.77;2.87;;;;;;;5.99;83.18;152900.75;5052587;28;20426;-80
2022/01/30 11:41:09;;;;;;;4.27;2.90;;;;;;;5.90;86.43;152877.56;5064828;28;20552;-79
2022/01/30 11:44:18;;;;;;;4.97;3.03;;;;;;;5.91;87.40;152880.09;5036146;28;20434;-80
2022/01/30 11:47:19;;;;;;;5.63;3.00;;;;;;;6.03;81.95;152911.09;5062284;28;20434;-80
2022/01/30 11:50:06;;;;;;;5.67;2.93;;;;;;;6.08;84.31;152922.69;5039934;28;20486;-79
2022/01/30 11:53:00;;;;;;;5.37;3.00;;;;;;;6.11;79.44;152931.72;5050048;28;20433;-80
2022/01/30 11:55:50;;;;;;;4.67;2.33;;;;;;;6.31;77.82;152982.03;5055543;28;20450;-79
2022/01/30 11:58:43;;;;;;;6.13;3.60;;;;;;;6.27;80.51;152970.41;5069172;28;20450;-80
2022/01/30 12:01:38;;;;;;;5.83;2.63;;;;;;;6.28;81.44;152974.28;5054692;28;20466;-79
2022/01/30 12:04:15;;;;;;;5.23;2.80;;;;;;;6.27;78.41;152970.41;5036547;28;20538;-79
2022/01/30 12:06:52;;;;;;;5.17;2.90;;;;;;;6.22;73.46;152958.81;5042191;28;20430;-79
2022/01/30 12:09:29;;;;;;;4.20;3.00;;;;;;;6.22;79.29;152957.53;5044962;28;20558;-80
2022/01/30 12:12:07;;;;;;;5.10;2.93;;;;;;;6.29;77.86;152975.56;5069522;28;20465;-79
2022/01/30 12:14:46;;;;;;;5.80;2.90;;;;;;;6.36;79.11;152993.63;5037599;28;20434;-80
2022/01/30 12:17:50;;;;;;;9.60;3.67;;;;;;;6.50;77.63;153031.06;5067048;28;20449;-80
2022/01/30 12:20:27;;;;;;;7.43;3.10;;;;;;;6.54;78.00;153040.13;5031177;28;20453;-79
2022/01/30 12:23:04;;;;;;;4.03;2.97;;;;;;;6.53;74.86;153037.50;5043201;28;20821;-79
2022/01/30 12:25:40;;;;;;;5.03;2.77;;;;;;;6.61;76.89;153058.16;5080269;28;20499;-80
2022/01/30 12:28:16;;;;;;;5.50;3.17;;;;;;;6.58;76.98;153050.41;5060546;28;21190;-79
2022/01/30 12:30:53;;;;;;;6.47;2.93;;;;;;;6.57;75.78;153047.81;5047302;28;20792;-79
2022/01/30 12:33:43;;;;;;;4.87;3.37;;;;;;;6.51;80.08;153032.38;5057587;28;20453;-79
2022/01/30 12:36:20;;;;;;;11.30;3.03;;;;;;;6.53;77.75;153037.50;5057738;28;20481;-80
2022/01/30 12:39:04;;;;;;;10.27;3.87;;;;;;;6.60;74.75;153055.56;5053997;28;20532;-80
2022/01/30 12:41:40;;;;;;;4.63;2.90;;;;;;;6.59;75.44;153053.00;5058385;28;20437;-80
2022/01/30 12:44:19;;;;;;;6.53;3.37;;;;;;;6.58;73.52;153050.41;5052326;28;20537;-80
2022/01/30 12:46:55;;;;;;;3.03;2.60;;;;;;;6.56;74.57;153045.25;5068569;28;20449;-80
2022/01/30 12:49:33;;;;;;;5.07;2.83;;;;;;;6.51;76.49;153033.63;5056699;28;20457;-80
2022/01/30 12:52:16;;;;;;;6.43;2.50;;;;;;;6.32;75.14;152983.31;5058128;28;20462;-80
2022/01/30 12:54:54;;;;;;;5.53;2.90;;;;;;;6.28;75.47;152972.97;5032580;28;20464;-80
2022/01/30 12:57:31;;;;;;;5.43;2.77;;;;;;;6.30;78.14;152978.16;5062314;28;20445;-80
2022/01/30 13:00:09;;;;;;;3.37;2.60;;;;;;;6.26;80.49;152969.13;5034174;28;20456;-79
2022/01/30 13:02:56;;;;;;;3.30;2.77;;;;;;;6.26;78.81;152967.81;5044000;28;20453;-80
2022/01/30 13:05:33;;;;;;;7.47;2.80;;;;;;;6.23;78.74;152960.06;5052909;28;20459;-80
2022/01/30 13:08:08;;;;;;;5.70;2.67;;;;;;;6.21;75.12;152956.22;5035073;28;20441;-79
2022/01/30 13:10:45;;;;;;;5.50;2.57;;;;;;;6.12;80.11;152932.97;5060884;28;20485;-80